Time;durP1;ratioP1;P1;durP2;ratioP2;P2;SDS_P1;SDS_P2;PMS_P1;PMS_P2;Temp;Humidity;BMP_temperature;BMP_pressure;BME280_temperature;BME280_humidity;BME280_pressure;Samples;Min_cycle;Max_cycle;Signal;HPM_P1;HPM_P2
2023/07/08 00:01:13;;;;;;;4.30;2.97;;;13.20;99.90;12.50;101106;;;;580528;243;24055;-78
2023/07/08 00:03:40;;;;;;;2.70;2.50;;;13.20;99.90;12.50;101107;;;;589574;243;24059;-78
2023/07/08 00:06:23;;;;;;;2.80;2.60;;;13.20;99.90;12.40;101112;;;;586908;243;24105;-79
2023/07/08 00:08:51;;;;;;;6.93;3.30;;;13.20;99.90;12.40;101112;;;;580638;243;24080;-77
2023/07/08 00:11:19;;;;;;;2.50;2.27;;;13.10;99.90;12.40;101114;;;;581103;243;24058;-77
2023/07/08 00:13:47;;;;;;;3.37;2.40;;;13.10;99.90;12.40;101113;;;;581159;243;24086;-79
2023/07/08 00:16:15;;;;;;;4.23;2.30;;;13.10;99.90;12.40;101112;;;;581181;243;24075;-79
2023/07/08 00:18:42;;;;;;;6.17;2.43;;;13.00;99.90;12.40;101111;;;;580923;243;24059;-78
2023/07/08 00:21:16;;;;;;;4.77;2.57;;;13.10;99.90;12.40;101113;;;;580633;243;24082;-78
2023/07/08 00:23:45;;;;;;;2.40;2.20;;;13.10;99.90;12.30;101115;;;;580204;243;24077;-79
2023/07/08 00:26:22;;;;;;;2.33;2.07;;;13.10;99.90;12.30;101109;;;;578317;242;24080;-79
2023/07/08 00:28:50;;;;;;;2.60;2.40;;;13.00;99.90;12.30;101105;;;;581750;243;24112;-79
2023/07/08 00:31:23;;;;;;;4.30;1.93;;;13.00;99.90;12.30;101107;;;;581396;243;24088;-79
2023/07/08 00:33:45;;;;;;;2.30;2.10;;;13.00;99.90;12.30;101105;;;;580916;243;24056;-78
2023/07/08 00:36:13;;;;;;;1.93;1.83;;;13.00;99.90;12.30;101109;;;;581148;242;24043;-79
2023/07/08 00:38:44;;;;;;;3.20;1.83;;;13.00;99.90;12.30;101103;;;;581068;240;24073;-78
2023/07/08 00:41:10;;;;;;;3.17;2.40;;;13.00;99.90;12.30;101106;;;;580927;243;24087;-77
2023/07/08 00:43:50;;;;;;;2.57;2.00;;;13.00;99.90;12.40;101104;;;;581073;243;24084;-79
2023/07/08 00:46:30;;;;;;;2.40;2.07;;;13.10;99.90;12.40;101100;;;;581070;243;24093;-79
2023/07/08 00:49:38;;;;;;;4.77;2.20;;;13.10;99.90;12.50;101103;;;;589789;243;24099;-78
2023/07/08 00:52:27;;;;;;;2.40;2.20;;;13.10;99.90;12.50;101096;;;;573385;243;35082;-79
2023/07/08 00:54:55;;;;;;;1.63;1.53;;;13.20;99.90;12.50;101105;;;;579373;243;24082;-79
2023/07/08 00:57:24;;;;;;;2.87;2.20;;;13.20;99.90;12.50;101093;;;;589304;238;24130;-78
2023/07/08 00:59:57;;;;;;;5.00;1.70;;;13.20;99.90;12.50;101099;;;;580164;243;24052;-79
2023/07/08 01:02:29;;;;;;;1.77;1.67;;;13.20;99.90;12.50;101099;;;;580133;243;24105;-79
2023/07/08 01:05:00;;;;;;;3.13;2.00;;;13.20;99.90;12.60;101088;;;;579807;243;24066;-79
2023/07/08 01:10:15;;;;;;;3.70;2.00;;;13.30;99.90;12.60;101100;;;;562534;252;24157;-78
2023/07/08 01:12:44;;;;;;;2.93;1.50;;;13.40;99.90;12.70;101095;;;;560869;254;24094;-79
2023/07/08 01:15:15;;;;;;;1.60;1.50;;;13.30;99.90;12.70;101101;;;;558879;251;24147;-78
2023/07/08 01:17:40;;;;;;;2.13;1.40;;;13.40;99.90;12.80;101087;;;;551863;256;24166;-79
2023/07/08 01:20:17;;;;;;;1.93;1.57;;;13.50;99.90;12.80;101093;;;;560384;255;24195;-79
2023/07/08 01:22:36;;;;;;;1.37;1.30;;;13.50;99.90;12.90;101083;;;;554343;252;24217;-79
2023/07/08 01:25:04;;;;;;;2.43;1.50;;;13.60;99.90;12.90;101083;;;;558498;252;24192;-78
2023/07/08 01:27:32;;;;;;;4.10;1.40;;;13.60;99.90;12.90;101081;;;;561966;250;24160;-79
2023/07/08 01:30:00;;;;;;;1.20;1.20;;;13.60;99.90;12.90;101077;;;;560368;255;24188;-78
2023/07/08 01:32:28;;;;;;;2.63;1.30;;;13.60;99.90;12.90;101076;;;;559773;252;24140;-79
2023/07/08 01:35:02;;;;;;;2.00;1.40;;;13.60;99.90;12.90;101073;;;;562502;250;24109;-79
2023/07/08 01:37:48;;;;;;;1.20;1.10;;;13.60;99.90;12.90;101070;;;;571750;249;24164;-78
2023/07/08 01:40:31;;;;;;;2.13;1.23;;;13.60;99.90;12.90;101071;;;;561019;252;24129;-78
2023/07/08 01:42:59;;;;;;;1.57;1.20;;;13.60;99.90;12.90;101069;;;;561437;252;24120;-79
2023/07/08 01:45:27;;;;;;;1.03;1.03;;;13.60;99.90;12.80;101062;;;;563323;250;24104;-79
2023/07/08 01:48:00;;;;;;;1.83;1.53;;;13.50;99.90;12.80;101062;;;;561296;255;24168;-78
2023/07/08 01:50:28;;;;;;;2.33;1.97;;;13.50;99.90;12.80;101056;;;;560243;252;24099;-79
2023/07/08 01:52:56;;;;;;;2.10;1.90;;;13.50;99.90;12.80;101066;;;;552735;255;24109;-78
2023/07/08 01:55:24;;;;;;;4.17;2.30;;;13.50;99.90;12.80;101061;;;;562535;251;24102;-78
2023/07/08 01:57:55;;;;;;;2.27;2.07;;;13.50;99.90;12.80;101059;;;;555904;250;24145;-78
2023/07/08 02:00:21;;;;;;;2.87;2.50;;;13.50;99.90;12.80;101056;;;;563449;250;24114;-79
2023/07/08 02:02:49;;;;;;;3.50;2.17;;;13.40;99.90;12.80;101065;;;;558351;255;24142;-78
2023/07/08 02:05:18;;;;;;;2.30;2.13;;;13.40;99.90;12.70;101053;;;;572916;250;24120;-78
2023/07/08 02:07:46;;;;;;;2.77;2.10;;;13.40;99.90;12.70;101056;;;;562718;250;24118;-79
2023/07/08 02:10:17;;;;;;;4.70;2.63;;;13.40;99.90;12.70;101058;;;;557917;250;36512;-79
2023/07/08 02:12:42;;;;;;;4.77;2.70;;;13.40;99.90;12.70;101054;;;;567801;247;39525;-79
2023/07/08 02:15:13;;;;;;;5.80;2.37;;;13.30;99.90;12.60;101060;;;;562589;250;24098;-79
2023/07/08 02:17:37;;;;;;;2.50;2.30;;;13.30;99.90;12.60;101059;;;;563756;248;24104;-79
2023/07/08 02:20:09;;;;;;;5.83;2.00;;;13.30;99.90;12.60;101063;;;;562526;250;24101;-78
2023/07/08 02:22:34;;;;;;;5.07;1.97;;;13.30;99.90;12.70;101065;;;;572496;250;24183;-79
2023/07/08 02:25:02;;;;;;;1.73;1.63;;;13.30;99.90;12.80;101065;;;;562587;250;24100;-79
2023/07/08 02:27:30;;;;;;;4.90;2.27;;;13.50;99.90;12.90;101062;;;;557663;250;35383;-79
2023/07/08 02:29:58;;;;;;;3.43;2.10;;;13.50;99.90;13.00;101060;;;;562525;250;24105;-78
2023/07/08 02:32:26;;;;;;;2.50;1.90;;;13.60;99.90;13.00;101061;;;;562830;250;24169;-79
2023/07/08 02:34:54;;;;;;;1.70;1.57;;;13.70;99.90;13.10;101059;;;;562913;250;24163;-79
2023/07/08 02:37:22;;;;;;;2.37;1.77;;;13.80;99.90;13.20;101051;;;;562974;250;24148;-79
2023/07/08 02:39:50;;;;;;;3.03;1.77;;;13.80;99.90;13.30;101060;;;;562847;250;24143;-79
2023/07/08 02:42:18;;;;;;;3.10;2.13;;;13.90;99.90;13.30;101058;;;;562903;250;24101;-79
2023/07/08 02:44:46;;;;;;;2.10;1.77;;;13.90;99.90;13.40;101069;;;;562908;250;24107;-79
2023/07/08 02:47:14;;;;;;;2.57;1.90;;;14.00;99.90;13.50;101075;;;;572227;250;24100;-79
2023/07/08 02:49:41;;;;;;;4.60;2.13;;;14.10;99.90;13.50;101071;;;;563745;250;24099;-78
2023/07/08 02:52:09;;;;;;;2.00;1.80;;;14.10;99.90;13.60;101065;;;;563992;250;24093;-78
2023/07/08 02:54:37;;;;;;;2.33;2.00;;;14.20;99.90;13.60;101061;;;;573197;250;24153;-78
2023/07/08 02:57:05;;;;;;;2.23;1.50;;;14.20;99.90;13.70;101069;;;;563719;250;24115;-79
2023/07/08 02:59:34;;;;;;;1.87;1.77;;;14.30;99.90;13.70;101063;;;;562926;250;24152;-78
2023/07/08 03:02:02;;;;;;;2.13;1.97;;;14.30;99.90;13.80;101056;;;;563393;250;24172;-79
2023/07/08 03:04:30;;;;;;;2.40;2.23;;;14.40;99.90;13.90;101053;;;;563344;250;24115;-81
2023/07/08 03:06:58;;;;;;;2.13;2.03;;;14.50;99.90;13.90;101060;;;;563260;250;24097;-78
2023/07/08 03:09:28;;;;;;;4.43;2.10;;;14.50;99.90;14.00;101056;;;;563051;250;25169;-79
2023/07/08 03:11:53;;;;;;;2.07;1.73;;;14.60;99.90;14.10;101053;;;;570084;250;24162;-79
2023/07/08 03:14:21;;;;;;;2.20;2.00;;;14.70;99.90;14.10;101056;;;;563190;250;24124;-79
2023/07/08 03:16:49;;;;;;;2.27;2.13;;;14.70;99.90;14.20;101058;;;;563184;250;24130;-79
2023/07/08 03:19:17;;;;;;;3.77;1.93;;;14.80;99.90;14.30;101059;;;;563187;250;24113;-78
2023/07/08 03:21:46;;;;;;;2.07;1.60;;;15.00;99.90;14.40;101057;;;;563171;250;24112;-79
2023/07/08 03:24:18;;;;;;;2.73;1.83;;;15.00;99.90;14.60;101055;;;;563196;250;24118;-79
2023/07/08 03:26:42;;;;;;;2.17;1.80;;;15.10;99.90;14.70;101050;;;;562719;250;24121;-79
2023/07/08 03:29:10;;;;;;;2.43;1.77;;;15.30;99.90;14.90;101051;;;;562814;250;24105;-79
2023/07/08 03:31:38;;;;;;;2.00;1.90;;;15.50;99.90;15.30;101045;;;;563741;250;24147;-79
2023/07/08 03:34:05;;;;;;;2.40;2.20;;;15.80;99.90;15.60;101044;;;;562976;250;24108;-78
2023/07/08 03:36:37;;;;;;;2.00;1.87;;;16.10;99.90;15.70;101045;;;;562940;250;24144;-78
2023/07/08 03:39:01;;;;;;;2.60;2.40;;;16.30;99.90;15.80;101056;;;;567816;250;35402;-80
2023/07/08 03:41:30;;;;;;;4.70;2.40;;;16.40;99.90;15.90;101057;;;;562880;250;24116;-80
2023/07/08 03:43:58;;;;;;;3.97;1.87;;;16.40;99.90;16.00;101054;;;;562885;250;24098;-80
2023/07/08 03:46:26;;;;;;;3.53;2.30;;;16.60;99.90;16.10;101055;;;;562908;250;24151;-80
2023/07/08 03:48:54;;;;;;;2.67;2.47;;;16.70;99.90;16.30;101052;;;;557985;250;35399;-79
2023/07/08 03:51:30;;;;;;;7.33;2.60;;;16.80;99.90;16.60;101055;;;;562969;250;24163;-79
2023/07/08 03:53:58;;;;;;;3.43;1.87;;;17.10;99.90;16.80;101056;;;;572036;250;24150;-79
2023/07/08 03:56:26;;;;;;;2.60;2.03;;;17.30;99.90;17.20;101056;;;;562925;250;24163;-79
2023/07/08 03:58:54;;;;;;;4.30;2.00;;;17.70;99.90;17.90;101052;;;;572643;247;24155;-79
2023/07/08 04:01:25;;;;;;;3.90;2.00;;;18.30;99.90;18.30;101057;;;;570382;250;24157;-79
2023/07/08 04:03:53;;;;;;;2.43;2.10;;;18.80;99.90;18.70;101058;;;;565197;250;23173;-80
2023/07/08 04:06:21;;;;;;;2.23;2.03;;;19.20;99.90;19.20;101061;;;;573858;250;24092;-79
2023/07/08 04:08:48;;;;;;;2.80;2.10;;;19.70;99.90;19.20;101065;;;;563656;250;23121;-79
2023/07/08 04:11:17;;;;;;;2.07;1.93;;;19.80;99.90;19.10;101057;;;;573478;250;23149;-79
2023/07/08 04:13:46;;;;;;;2.50;2.10;;;20.10;99.90;19.60;101063;;;;572944;250;23128;-81
2023/07/08 04:16:21;;;;;;;4.60;2.20;;;20.50;99.90;20.00;101063;;;;572831;250;24146;-79
2023/07/08 04:18:52;;;;;;;2.37;1.70;;;20.50;99.90;20.20;101055;;;;563434;250;24119;-79
2023/07/08 04:21:16;;;;;;;3.97;2.53;;;20.80;99.90;21.00;101061;;;;563662;250;24109;-78
2023/07/08 04:23:44;;;;;;;2.00;1.90;;;21.40;99.90;21.70;101062;;;;572428;250;24137;-79
2023/07/08 04:26:16;;;;;;;3.33;2.10;;;22.20;99.90;21.70;101071;;;;563130;250;24098;-79
2023/07/08 04:28:40;;;;;;;2.10;2.00;;;22.40;99.90;21.60;101063;;;;573002;250;24159;-79
2023/07/08 04:31:08;;;;;;;1.93;1.83;;;22.30;99.90;22.10;101054;;;;563120;250;24160;-79
2023/07/08 04:33:36;;;;;;;4.50;1.73;;;22.70;99.90;22.60;101057;;;;562842;250;24120;-78
2023/07/08 04:36:04;;;;;;;2.30;2.00;;;23.20;99.90;23.80;101061;;;;572759;250;24147;-79
2023/07/08 04:38:34;;;;;;;2.13;1.90;;;24.30;99.90;24.90;101057;;;;571985;250;23144;-79
2023/07/08 04:41:00;;;;;;;3.83;2.10;;;25.50;99.00;25.50;101061;;;;562686;250;23135;-79
2023/07/08 04:43:28;;;;;;;3.53;2.20;;;26.10;96.00;26.10;101063;;;;573110;250;24128;-79
2023/07/08 04:45:56;;;;;;;2.73;2.47;;;26.80;93.40;27.00;101064;;;;562691;250;24124;-78
2023/07/08 04:48:24;;;;;;;4.77;2.20;;;27.70;91.30;27.90;101070;;;;564176;250;23114;-79
2023/07/08 04:50:51;;;;;;;4.90;2.10;;;28.70;87.50;28.60;101069;;;;562834;250;23118;-79
2023/07/08 04:53:19;;;;;;;2.72;2.47;;;29.50;81.70;29.40;101081;;;;572577;250;23115;-79
2023/07/08 04:55:47;;;;;;;2.92;2.20;;;30.20;77.60;30.10;101076;;;;562753;250;23131;-80
2023/07/08 04:58:15;;;;;;;4.82;2.12;;;31.00;73.90;30.80;101080;;;;562872;250;23151;-80
2023/07/08 05:00:46;;;;;;;2.10;2.00;;;31.70;70.30;31.00;101083;;;;562553;250;23126;-78
2023/07/08 05:03:14;;;;;;;3.67;2.20;;;32.00;67.10;30.70;101088;;;;572826;250;24154;-78
2023/07/08 05:05:39;;;;;;;2.55;2.35;;;31.70;65.60;30.20;101086;;;;562323;250;24101;-79
2023/07/08 05:08:07;;;;;;;2.58;2.10;;;31.20;65.50;30.20;101085;;;;562635;250;23115;-79
2023/07/08 05:10:36;;;;;;;7.07;1.98;;;31.80;64.30;31.10;101079;;;;572642;250;23146;-80
2023/07/08 05:13:04;;;;;;;3.40;2.45;;;32.80;61.10;32.20;101074;;;;563755;250;23116;-79
2023/07/08 05:15:36;;;;;;;1.92;1.80;;;32.80;61.10;33.10;101081;;;;563577;250;23118;-79
2023/07/08 05:18:00;;;;;;;2.40;1.95;;;33.90;58.40;33.60;101078;;;;572687;250;23119;-80
2023/07/08 05:20:30;;;;;;;1.73;1.62;;;34.40;56.40;33.80;101078;;;;563354;250;24163;-80
2023/07/08 05:22:56;;;;;;;2.83;1.87;;;34.70;55.10;34.70;101077;;;;562915;250;23159;-78
2023/07/08 05:25:24;;;;;;;3.47;1.92;;;35.40;53.80;35.60;101074;;;;563186;250;23117;-80
2023/07/08 05:27:52;;;;;;;2.75;1.73;;;36.40;52.60;36.60;101075;;;;563028;250;23126;-80
2023/07/08 05:30:20;;;;;;;2.12;1.67;;;37.30;51.20;37.40;101076;;;;562938;250;23125;-79
2023/07/08 05:32:48;;;;;;;3.00;1.90;;;38.20;49.70;38.20;101072;;;;562821;250;23136;-79
2023/07/08 05:35:15;;;;;;;2.70;2.05;;;39.00;48.30;39.10;101066;;;;563098;250;23157;-81
2023/07/08 05:37:46;;;;;;;2.15;1.65;;;39.80;47.10;39.70;101077;;;;563122;250;23126;-80
2023/07/08 05:40:11;;;;;;;6.43;2.72;;;40.50;45.50;40.10;101089;;;;563096;250;24178;-80
2023/07/08 05:42:40;;;;;;;2.25;2.00;;;41.00;43.60;40.20;101083;;;;573258;247;23112;-80
2023/07/08 05:45:10;;;;;;;3.40;2.25;;;41.10;43.00;40.30;101084;;;;563237;250;23129;-81
2023/07/08 05:47:37;;;;;;;1.58;1.45;;;41.10;43.00;40.60;101075;;;;572341;250;23109;-80
2023/07/08 05:50:04;;;;;;;1.87;1.45;;;41.30;42.50;41.20;101084;;;;564431;250;23131;-80
2023/07/08 05:52:33;;;;;;;1.67;1.58;;;42.40;41.70;41.80;101090;;;;564358;250;24160;-80
2023/07/08 05:55:01;;;;;;;5.07;1.75;;;42.40;41.60;42.30;101090;;;;562814;250;23099;-80
2023/07/08 05:57:29;;;;;;;2.92;1.80;;;42.90;41.10;42.60;101087;;;;562819;247;23141;-79
2023/07/08 05:59:57;;;;;;;3.87;1.50;;;43.20;40.40;42.70;101093;;;;572950;250;24157;-80
2023/07/08 06:02:25;;;;;;;1.62;1.52;;;43.30;40.10;42.70;101089;;;;572998;250;23138;-80
2023/07/08 06:04:53;;;;;;;3.20;1.75;;;43.30;39.40;42.70;101102;;;;562442;250;24153;-81
2023/07/08 06:07:21;;;;;;;1.98;1.83;;;43.40;39.20;42.90;101101;;;;562416;250;23119;-81
2023/07/08 06:09:51;;;;;;;2.35;1.92;;;43.40;39.00;43.20;101093;;;;571935;250;24198;-80
2023/07/08 06:12:17;;;;;;;1.70;1.60;;;43.60;38.60;43.60;101092;;;;562531;250;23151;-79
2023/07/08 06:14:45;;;;;;;2.25;1.80;;;44.00;37.90;43.60;101099;;;;562498;250;23111;-81
2023/07/08 06:17:13;;;;;;;1.80;1.70;;;44.10;37.80;42.70;101100;;;;571832;250;24168;-80
2023/07/08 06:19:41;;;;;;;2.90;1.70;;;43.40;37.70;41.00;101109;;;;562566;250;23128;-80
2023/07/08 06:22:09;;;;;;;1.80;1.70;;;42.00;38.20;39.60;101103;;;;562553;250;23110;-80
2023/07/08 06:24:37;;;;;;;2.50;1.80;;;40.50;40.10;38.60;101107;;;;568635;249;35463;-80
2023/07/08 06:27:06;;;;;;;2.00;1.70;;;38.70;41.80;38.00;101103;;;;558826;250;37316;-80
2023/07/08 06:29:34;;;;;;;1.67;1.58;;;38.60;41.70;38.10;101096;;;;572711;250;23118;-80
2023/07/08 06:32:08;;;;;;;2.30;1.60;;;38.80;42.00;38.70;101093;;;;573378;247;23170;-80
2023/07/08 06:34:33;;;;;;;2.58;1.45;;;38.80;41.90;40.30;101085;;;;563201;250;23130;-80
2023/07/08 06:37:01;;;;;;;1.85;1.70;;;40.10;41.10;41.30;101088;;;;563355;250;23124;-80
2023/07/08 06:39:29;;;;;;;2.08;1.87;;;41.20;39.70;41.90;101092;;;;562996;250;23123;-80
2023/07/08 06:41:57;;;;;;;1.35;1.35;;;41.90;39.00;42.60;101103;;;;563076;250;23169;-80
2023/07/08 06:44:25;;;;;;;1.60;1.50;;;42.70;38.20;43.30;101104;;;;562867;250;23110;-80
2023/07/08 06:46:53;;;;;;;2.90;1.58;;;43.30;38.10;43.50;101095;;;;562704;250;23096;-80
2023/07/08 06:49:20;;;;;;;1.52;1.23;;;43.70;37.70;43.60;101096;;;;572921;250;23107;-80
2023/07/08 06:51:48;;;;;;;4.60;1.73;;;43.70;37.40;44.10;101100;;;;562766;250;23140;-80
2023/07/08 06:54:16;;;;;;;1.60;1.50;;;44.20;36.50;44.20;101093;;;;562871;250;23166;-80
2023/07/08 06:56:44;;;;;;;2.33;2.22;;;44.40;36.30;44.20;101088;;;;562814;250;23134;-80
2023/07/08 06:59:12;;;;;;;1.80;1.70;;;44.60;36.20;44.30;101085;;;;562665;250;23122;-80
2023/07/08 07:01:41;;;;;;;1.65;1.50;;;45.20;35.80;44.90;101101;;;;572672;248;23113;-81
2023/07/08 07:04:09;;;;;;;3.62;1.80;;;45.10;35.70;45.50;101090;;;;562516;250;23123;-80
2023/07/08 07:06:37;;;;;;;1.40;1.40;;;45.70;35.40;46.10;101091;;;;562917;250;23120;-79
2023/07/08 07:09:05;;;;;;;1.87;1.67;;;46.30;34.90;46.50;101092;;;;562174;250;23164;-80
2023/07/08 07:11:32;;;;;;;1.48;1.48;;;46.80;34.70;47.00;101089;;;;562533;250;23107;-81
2023/07/08 07:14:00;;;;;;;1.67;1.58;;;47.20;34.20;47.50;101084;;;;562630;250;23118;-80
2023/07/08 07:16:28;;;;;;;2.22;2.12;;;47.70;33.50;47.70;101089;;;;562509;250;23138;-80
2023/07/08 07:18:56;;;;;;;3.75;2.00;;;47.90;34.10;48.00;101093;;;;572582;250;23164;-79
2023/07/08 07:21:25;;;;;;;2.28;2.10;;;48.40;33.20;48.20;101095;;;;562542;250;23122;-80
2023/07/08 07:23:54;;;;;;;5.30;2.00;;;48.70;33.10;48.50;101095;;;;562605;250;23096;-80
2023/07/08 07:26:22;;;;;;;2.05;1.90;;;48.90;32.80;48.70;101102;;;;562524;250;23127;-79
2023/07/08 07:28:50;;;;;;;2.17;1.95;;;48.80;32.70;48.50;101096;;;;562912;250;23139;-80
2023/07/08 07:31:18;;;;;;;1.70;1.60;;;48.90;32.30;48.50;101095;;;;562743;250;23225;-79
2023/07/08 07:33:46;;;;;;;4.07;2.17;;;48.90;32.50;48.80;101105;;;;562798;250;23126;-80
2023/07/08 07:36:14;;;;;;;1.98;1.75;;;49.00;32.70;48.70;101096;;;;563672;250;23111;-79
2023/07/08 07:38:42;;;;;;;3.40;2.00;;;49.10;32.10;48.80;101095;;;;564038;250;23106;-79
2023/07/08 07:41:10;;;;;;;3.12;2.55;;;49.20;32.10;48.80;101090;;;;563507;250;23122;-80
2023/07/08 07:43:38;;;;;;;2.03;1.92;;;49.20;31.60;48.80;101093;;;;563294;250;23249;-80
2023/07/08 07:46:07;;;;;;;2.72;1.67;;;49.40;31.90;48.90;101101;;;;562986;250;23125;-80
2023/07/08 07:48:38;;;;;;;2.55;2.20;;;49.30;31.80;48.60;101103;;;;563038;250;23131;-80
2023/07/08 07:51:02;;;;;;;2.10;2.00;;;49.00;32.40;48.60;101095;;;;563455;250;23125;-80
2023/07/08 07:53:31;;;;;;;2.40;2.20;;;49.00;32.70;48.90;101099;;;;567483;250;35352;-80
2023/07/08 07:55:58;;;;;;;2.33;1.90;;;49.20;32.20;49.40;101095;;;;562814;250;23115;-79
2023/07/08 07:58:27;;;;;;;4.75;2.08;;;50.00;32.20;50.00;101094;;;;572937;247;23137;-81
2023/07/08 08:00:55;;;;;;;1.80;1.70;;;50.40;32.00;50.30;101101;;;;562943;250;23157;-80
2023/07/08 08:03:27;;;;;;;2.20;2.10;;;50.40;32.00;50.70;101091;;;;562674;250;23112;-80
2023/07/08 08:05:51;;;;;;;2.08;1.98;;;50.70;31.60;51.20;101104;;;;563591;250;23130;-81
2023/07/08 08:08:22;;;;;;;3.08;1.90;;;51.80;31.10;51.70;101101;;;;563103;250;23201;-82
2023/07/08 08:10:49;;;;;;;2.40;2.20;;;52.00;30.90;51.70;101106;;;;564361;250;23173;-81
2023/07/08 08:13:16;;;;;;;2.90;2.05;;;52.10;30.90;51.60;101113;;;;557733;250;36191;-82
2023/07/08 08:15:44;;;;;;;4.00;2.20;;;52.00;30.30;51.10;101106;;;;557620;250;35350;-80
2023/07/08 08:18:12;;;;;;;2.15;2.00;;;51.70;30.60;50.70;101118;;;;557687;250;35368;-81
2023/07/08 08:20:41;;;;;;;2.37;2.17;;;51.30;30.80;50.60;101112;;;;557629;250;35374;-80
2023/07/08 08:23:09;;;;;;;3.70;1.80;;;51.40;31.50;51.10;101114;;;;562608;250;24188;-81
2023/07/08 08:25:38;;;;;;;3.60;1.90;;;52.00;30.50;51.80;101110;;;;562567;250;23134;-81
2023/07/08 08:28:05;;;;;;;2.35;2.17;;;51.90;30.30;52.20;101109;;;;562460;250;23165;-81
2023/07/08 08:30:33;;;;;;;5.85;2.53;;;52.50;30.00;52.50;101118;;;;562625;250;23118;-80
2023/07/08 08:33:05;;;;;;;2.55;2.45;;;52.80;30.00;52.60;101112;;;;562452;250;23155;-80
2023/07/08 08:35:29;;;;;;;2.30;2.10;;;53.10;29.80;52.50;101115;;;;572270;250;23137;-80
2023/07/08 08:37:57;;;;;;;2.33;2.20;;;53.00;29.90;52.60;101120;;;;572936;250;25199;-80
2023/07/08 08:40:25;;;;;;;4.85;2.30;;;53.00;30.10;52.90;101123;;;;573034;250;23114;-81
2023/07/08 08:43:05;;;;;;;3.83;1.75;;;53.20;29.50;53.30;101120;;;;572612;250;23108;-82
2023/07/08 08:45:54;;;;;;;2.78;2.08;;;53.70;29.80;53.50;101121;;;;553627;255;23133;-80
2023/07/08 08:48:22;;;;;;;1.87;1.75;;;54.00;29.40;53.40;101120;;;;559921;253;23162;-81
2023/07/08 08:50:56;;;;;;;2.53;1.98;;;53.90;29.20;53.20;101119;;;;551557;255;23152;-81
2023/07/08 08:53:25;;;;;;;2.37;2.10;;;53.90;29.30;53.60;101112;;;;573269;250;23221;-81
2023/07/08 08:56:04;;;;;;;2.55;1.80;;;53.90;29.30;54.00;101125;;;;573423;250;23119;-81
2023/07/08 08:58:44;;;;;;;2.45;2.25;;;54.40;29.20;54.10;101122;;;;549000;255;35607;-81
2023/07/08 09:01:12;;;;;;;2.17;2.08;;;54.70;28.90;54.00;101124;;;;553904;255;23165;-81
2023/07/08 09:03:50;;;;;;;2.47;2.17;;;54.80;29.00;54.00;101122;;;;551086;256;23167;-81
2023/07/08 09:06:23;;;;;;;3.92;2.25;;;54.80;29.00;53.70;101121;;;;572460;250;23110;-81
2023/07/08 09:08:49;;;;;;;2.10;1.95;;;54.40;28.40;53.10;101125;;;;565116;250;23179;-81
2023/07/08 09:11:36;;;;;;;2.10;2.00;;;53.70;29.10;52.40;101126;;;;564416;250;23136;-81
2023/07/08 09:14:04;;;;;;;2.35;2.10;;;53.70;29.00;51.10;101127;;;;561994;253;23135;-81
2023/07/08 09:16:40;;;;;;;2.10;2.00;;;52.60;29.50;50.50;101118;;;;572842;250;23126;-82
2023/07/08 09:19:14;;;;;;;2.65;1.98;;;51.70;29.80;49.80;101120;;;;572462;248;23138;-80
2023/07/08 09:21:47;;;;;;;2.20;2.00;;;50.90;30.00;48.80;101124;;;;572797;250;23130;-81
2023/07/08 09:24:22;;;;;;;4.12;2.12;;;49.80;30.50;48.40;101123;;;;571281;249;23119;-80
2023/07/08 09:26:50;;;;;;;3.37;2.40;;;49.00;31.60;48.60;101124;;;;569534;250;23127;-81
2023/07/08 09:29:18;;;;;;;2.25;1.80;;;49.00;31.60;49.20;101122;;;;563044;250;23138;-81
2023/07/08 09:31:46;;;;;;;2.62;1.90;;;49.50;31.50;50.10;101114;;;;562601;250;23102;-81
2023/07/08 09:34:14;;;;;;;1.90;1.80;;;50.40;31.30;51.30;101122;;;;571791;250;24160;-80
2023/07/08 09:36:45;;;;;;;2.15;1.95;;;51.60;30.90;52.10;101112;;;;572609;250;23157;-80
2023/07/08 09:39:13;;;;;;;4.12;2.20;;;52.70;29.90;51.80;101113;;;;572528;250;23133;-80
2023/07/08 09:41:44;;;;;;;1.95;1.85;;;52.80;29.50;51.50;101113;;;;563248;250;24156;-81
2023/07/08 09:44:15;;;;;;;3.50;2.10;;;52.50;29.80;51.70;101124;;;;564116;250;24165;-81
2023/07/08 09:46:43;;;;;;;2.42;2.22;;;52.30;29.60;51.30;101123;;;;572244;250;23127;-81
2023/07/08 09:49:24;;;;;;;9.48;2.60;;;52.30;29.60;51.70;101123;;;;572401;250;23162;-81
2023/07/08 09:51:51;;;;;;;2.53;2.33;;;52.50;30.10;52.80;101120;;;;570344;250;23163;-79
2023/07/08 09:54:26;;;;;;;3.10;2.83;;;53.40;29.70;53.00;101113;;;;562622;250;23115;-81
2023/07/08 09:57:11;;;;;;;2.42;2.25;;;54.10;29.30;53.40;101108;;;;572546;250;24158;-81
2023/07/08 09:59:40;;;;;;;2.33;2.12;;;55.00;28.80;53.80;101116;;;;573421;249;23171;-81
2023/07/08 10:02:26;;;;;;;6.95;2.50;;;55.00;28.70;54.30;101108;;;;573641;249;23177;-81
2023/07/08 10:04:54;;;;;;;5.07;2.47;;;55.60;28.60;54.40;101108;;;;563458;250;23141;-81
2023/07/08 10:07:22;;;;;;;2.78;2.58;;;55.80;28.60;54.30;101111;;;;573469;247;23134;-80
2023/07/08 10:09:57;;;;;;;2.55;2.35;;;55.80;28.60;54.10;101120;;;;569790;250;23193;-81
2023/07/08 10:12:24;;;;;;;5.43;2.95;;;55.70;28.50;53.80;101117;;;;563240;250;23228;-80
2023/07/08 10:14:55;;;;;;;3.25;3.00;;;55.30;28.90;53.40;101122;;;;572957;250;23174;-80
2023/07/08 10:17:23;;;;;;;3.30;2.85;;;54.50;29.60;53.10;101122;;;;572648;247;23143;-80
2023/07/08 10:19:52;;;;;;;3.45;2.87;;;53.90;29.10;52.30;101120;;;;562688;250;23166;-80
2023/07/08 10:22:53;;;;;;;6.45;3.47;;;53.80;29.10;49.70;101119;;;;563052;250;23098;-80
2023/07/08 10:25:39;;;;;;;2.60;2.40;;;52.00;29.60;47.10;101121;;;;562240;250;23178;-80
2023/07/08 10:28:28;;;;;;;3.50;2.70;;;49.10;31.00;45.60;101123;;;;562387;250;23132;-80
2023/07/08 10:31:11;;;;;;;5.55;2.90;;;47.40;32.60;45.10;101126;;;;568772;250;23222;-81
2023/07/08 10:33:42;;;;;;;3.45;3.25;;;46.40;33.40;44.20;101113;;;;572604;248;23103;-82
2023/07/08 10:36:24;;;;;;;3.72;2.70;;;45.70;34.20;43.10;101119;;;;572118;250;23162;-80
2023/07/08 10:39:10;;;;;;;2.97;2.78;;;44.80;34.80;41.70;101121;;;;564231;250;24250;-80
2023/07/08 10:42:05;;;;;;;4.22;2.40;;;43.60;35.50;40.20;101120;;;;572723;250;23182;-79
2023/07/08 10:44:36;;;;;;;6.85;2.80;;;40.10;38.80;38.50;101117;;;;563999;250;24193;-78
2023/07/08 10:47:28;;;;;;;2.78;2.60;;;40.10;38.80;37.40;101115;;;;572108;250;23166;-80
2023/07/08 10:50:14;;;;;;;4.45;2.75;;;38.50;40.60;36.10;101116;;;;572343;250;24178;-80
2023/07/08 10:53:19;;;;;;;2.78;2.40;;;36.70;42.70;34.80;101115;;;;564079;250;23141;-80
2023/07/08 10:55:53;;;;;;;3.80;2.65;;;35.10;44.90;33.10;101115;;;;572401;250;23156;-79
2023/07/08 10:58:30;;;;;;;6.90;3.10;;;33.60;46.30;31.80;101109;;;;563017;250;35453;-79
2023/07/08 11:01:31;;;;;;;3.12;2.30;;;32.50;48.20;30.70;101104;;;;571944;248;24145;-79
2023/07/08 11:04:06;;;;;;;3.85;2.28;;;29.90;52.30;29.30;101089;;;;572444;250;23124;-79
2023/07/08 11:06:55;;;;;;;2.72;1.95;;;29.80;52.30;28.30;101099;;;;572636;250;23166;-78
2023/07/08 11:09:22;;;;;;;3.25;2.10;;;28.90;54.50;27.40;101093;;;;572634;250;23137;-78
2023/07/08 11:11:50;;;;;;;4.77;2.30;;;28.00;56.00;26.80;101103;;;;573669;249;23279;-79
2023/07/08 11:14:27;;;;;;;4.53;2.40;;;27.30;57.40;26.20;101100;;;;572735;250;23138;-79
2023/07/08 11:17:09;;;;;;;4.00;1.90;;;26.70;59.10;25.80;101101;;;;573526;247;23135;-80
2023/07/08 11:19:40;;;;;;;2.20;2.00;;;26.20;60.40;25.20;101096;;;;573463;250;24133;-79
2023/07/08 11:22:11;;;;;;;5.97;2.10;;;25.70;61.70;24.80;101101;;;;562947;250;24174;-78
2023/07/08 11:24:48;;;;;;;5.67;2.20;;;25.30;63.20;24.40;101093;;;;563591;250;23126;-78
2023/07/08 11:27:26;;;;;;;4.97;2.00;;;24.90;63.30;24.00;101090;;;;572048;247;24128;-78